LTBJ/ADB METAR and TAF weather

Enter ICAO airport designator
Station Type Date Time Source
LTBJ METAR 2021/09/24 05:20 UTC NOAA

LTBJ 240520Z 09005KT 050V120 CAVOK 15/04 Q1017 NOSIG


Station Type Date Time Source
LTBJ Decoded METAR 2021/09/24 05:20 UTC NOAA

Izmir / Adnan Menderes, Turkey (LTBJ) 38-16N 027-09E 120M
Sep 24, 2021 - 01:20 AM EDT / 2021.09.24 0520 UTC
Wind: from the E (090 degrees) at 6 MPH (5 KT) (direction variable):0
Visibility: greater than 7 mile(s):0
Temperature: 59 F (15 C)
Dew Point: 39 F (4 C)
Relative Humidity: 47%
Pressure (altimeter): 30.03 in. Hg (1017 hPa)
ob: LTBJ 240520Z 09005KT 050V120 CAVOK 15/04 Q1017 NOSIG
cycle: 5

Station Type Date Time Source
LTBJ TAF 2021/09/24 06:03 UTC NOAA

TAF LTBJ 240440Z 2406/2506 36014KT CAVOK
BECMG 2410/2412 35018G30KT
BECMG 2417/2419 35012KT

Example: see airport list